sensor_id;sensor_type;location;lat;lon;timestamp;temperature;humidity
52209;DHT22;38507;53.132;6.394;2022-09-09T00:04:28;14.70;99.90
52209;DHT22;38507;53.132;6.394;2022-09-09T00:13:09;14.60;99.90
52209;DHT22;38507;53.132;6.394;2022-09-09T00:21:11;14.50;99.90
52209;DHT22;38507;53.132;6.394;2022-09-09T00:23:40;14.40;99.90
52209;DHT22;38507;53.132;6.394;2022-09-09T00:26:30;14.40;99.90
52209;DHT22;38507;53.132;6.394;2022-09-09T00:31:38;14.40;99.90
52209;DHT22;38507;53.132;6.394;2022-09-09T00:34:12;14.30;99.90
52209;DHT22;38507;53.132;6.394;2022-09-09T00:36:39;14.30;99.90
52209;DHT22;38507;53.132;6.394;2022-09-09T00:39:12;14.30;99.90
52209;DHT22;38507;53.132;6.394;2022-09-09T00:42:03;14.30;99.90
52209;DHT22;38507;53.132;6.394;2022-09-09T00:44:39;14.30;99.90
52209;DHT22;38507;53.132;6.394;2022-09-09T00:53:56;14.20;99.90
52209;DHT22;38507;53.132;6.394;2022-09-09T00:56:20;14.20;99.90
52209;DHT22;38507;53.132;6.394;2022-09-09T00:59:07;14.20;99.90
52209;DHT22;38507;53.132;6.394;2022-09-09T01:01:37;14.20;99.90
52209;DHT22;38507;53.132;6.394;2022-09-09T01:04:10;14.10;99.90
52209;DHT22;38507;53.132;6.394;2022-09-09T01:06:41;14.30;99.90
52209;DHT22;38507;53.132;6.394;2022-09-09T01:12:09;14.00;99.90
52209;DHT22;38507;53.132;6.394;2022-09-09T01:17:14;14.00;99.90
52209;DHT22;38507;53.132;6.394;2022-09-09T01:27:40;13.90;99.90
52209;DHT22;38507;53.132;6.394;2022-09-09T01:30:13;14.10;99.90
52209;DHT22;38507;53.132;6.394;2022-09-09T01:32:43;13.90;99.90
52209;DHT22;38507;53.132;6.394;2022-09-09T01:35:27;13.80;99.90
52209;DHT22;38507;53.132;6.394;2022-09-09T01:37:55;13.80;99.90
52209;DHT22;38507;53.132;6.394;2022-09-09T01:40:21;13.80;99.90
52209;DHT22;38507;53.132;6.394;2022-09-09T01:42:47;13.80;99.90
52209;DHT22;38507;53.132;6.394;2022-09-09T01:45:13;13.80;99.90
52209;DHT22;38507;53.132;6.394;2022-09-09T01:47:38;13.80;99.90
52209;DHT22;38507;53.132;6.394;2022-09-09T01:50:05;13.80;99.90
52209;DHT22;38507;53.132;6.394;2022-09-09T01:52:34;13.80;99.90
52209;DHT22;38507;53.132;6.394;2022-09-09T01:55:01;13.80;99.90
52209;DHT22;38507;53.132;6.394;2022-09-09T01:57:33;13.70;99.90
52209;DHT22;38507;53.132;6.394;2022-09-09T02:00:07;13.80;99.90
52209;DHT22;38507;53.132;6.394;2022-09-09T02:05:40;13.80;99.90
52209;DHT22;38507;53.132;6.394;2022-09-09T02:08:14;13.80;99.90
52209;DHT22;38507;53.132;6.394;2022-09-09T02:13:19;13.80;99.90
52209;DHT22;38507;53.132;6.394;2022-09-09T02:18:12;13.80;99.90
52209;DHT22;38507;53.132;6.394;2022-09-09T02:20:39;13.80;99.90
52209;DHT22;38507;53.132;6.394;2022-09-09T02:23:07;13.80;99.90
52209;DHT22;38507;53.132;6.394;2022-09-09T02:25:35;13.70;99.90
52209;DHT22;38507;53.132;6.394;2022-09-09T02:28:03;13.80;99.90
52209;DHT22;38507;53.132;6.394;2022-09-09T02:30:32;13.80;99.90
52209;DHT22;38507;53.132;6.394;2022-09-09T02:33:01;13.80;99.90
52209;DHT22;38507;53.132;6.394;2022-09-09T02:35:29;13.70;99.90
52209;DHT22;38507;53.132;6.394;2022-09-09T02:38:00;13.80;99.90
52209;DHT22;38507;53.132;6.394;2022-09-09T02:40:29;13.80;99.90
52209;DHT22;38507;53.132;6.394;2022-09-09T02:43:01;13.90;99.90
52209;DHT22;38507;53.132;6.394;2022-09-09T02:45:34;13.90;99.90
52209;DHT22;38507;53.132;6.394;2022-09-09T02:48:20;13.90;99.90
52209;DHT22;38507;53.132;6.394;2022-09-09T02:53:43;13.90;99.90
52209;DHT22;38507;53.132;6.394;2022-09-09T02:56:16;14.00;99.90
52209;DHT22;38507;53.132;6.394;2022-09-09T02:58:51;14.00;99.90
52209;DHT22;38507;53.132;6.394;2022-09-09T03:01:23;14.00;99.90
52209;DHT22;38507;53.132;6.394;2022-09-09T03:03:48;14.00;99.90
52209;DHT22;38507;53.132;6.394;2022-09-09T03:06:14;14.10;99.90
52209;DHT22;38507;53.132;6.394;2022-09-09T03:08:40;14.10;99.90
52209;DHT22;38507;53.132;6.394;2022-09-09T03:11:06;14.20;99.90
52209;DHT22;38507;53.132;6.394;2022-09-09T03:13:32;14.10;99.90
52209;DHT22;38507;53.132;6.394;2022-09-09T03:15:59;14.10;99.90
52209;DHT22;38507;53.132;6.394;2022-09-09T03:18:25;14.20;99.90
52209;DHT22;38507;53.132;6.394;2022-09-09T03:20:50;14.20;99.90
52209;DHT22;38507;53.132;6.394;2022-09-09T03:23:16;14.20;99.90
52209;DHT22;38507;53.132;6.394;2022-09-09T03:25:49;14.20;99.90
52209;DHT22;38507;53.132;6.394;2022-09-09T03:28:15;14.20;99.90
52209;DHT22;38507;53.132;6.394;2022-09-09T03:30:41;14.30;99.90
52209;DHT22;38507;53.132;6.394;2022-09-09T03:33:06;14.30;99.90
52209;DHT22;38507;53.132;6.394;2022-09-09T03:35:32;14.30;99.90
52209;DHT22;38507;53.132;6.394;2022-09-09T03:37:58;14.30;99.90
52209;DHT22;38507;53.132;6.394;2022-09-09T03:40:23;14.40;99.90
52209;DHT22;38507;53.132;6.394;2022-09-09T03:42:49;14.30;99.90
52209;DHT22;38507;53.132;6.394;2022-09-09T03:45:14;14.40;99.90
52209;DHT22;38507;53.132;6.394;2022-09-09T03:47:40;14.30;99.90
52209;DHT22;38507;53.132;6.394;2022-09-09T03:50:07;14.30;99.90
52209;DHT22;38507;53.132;6.394;2022-09-09T03:52:38;14.30;99.90
52209;DHT22;38507;53.132;6.394;2022-09-09T03:55:05;14.30;99.90
52209;DHT22;38507;53.132;6.394;2022-09-09T03:57:31;14.30;99.90
52209;DHT22;38507;53.132;6.394;2022-09-09T03:59:57;14.30;99.90
52209;DHT22;38507;53.132;6.394;2022-09-09T04:02:23;14.50;99.90
52209;DHT22;38507;53.132;6.394;2022-09-09T04:04:49;14.40;99.90
52209;DHT22;38507;53.132;6.394;2022-09-09T04:07:14;14.30;99.90
52209;DHT22;38507;53.132;6.394;2022-09-09T04:09:41;14.40;99.90
52209;DHT22;38507;53.132;6.394;2022-09-09T04:12:06;14.40;99.90
52209;DHT22;38507;53.132;6.394;2022-09-09T04:14:32;14.40;99.90
52209;DHT22;38507;53.132;6.394;2022-09-09T04:16:58;14.50;99.90
52209;DHT22;38507;53.132;6.394;2022-09-09T04:19:25;14.40;99.90
52209;DHT22;38507;53.132;6.394;2022-09-09T04:21:51;14.40;99.90
52209;DHT22;38507;53.132;6.394;2022-09-09T04:24:17;14.40;99.90
52209;DHT22;38507;53.132;6.394;2022-09-09T04:26:43;14.40;99.90
52209;DHT22;38507;53.132;6.394;2022-09-09T04:29:09;14.40;99.90
52209;DHT22;38507;53.132;6.394;2022-09-09T04:31:35;14.50;99.90
52209;DHT22;38507;53.132;6.394;2022-09-09T04:34:01;14.50;99.90
52209;DHT22;38507;53.132;6.394;2022-09-09T04:36:31;14.50;99.90
52209;DHT22;38507;53.132;6.394;2022-09-09T04:38:57;14.50;99.90
52209;DHT22;38507;53.132;6.394;2022-09-09T04:41:23;14.50;99.90
52209;DHT22;38507;53.132;6.394;2022-09-09T04:43:49;14.50;99.90
52209;DHT22;38507;53.132;6.394;2022-09-09T04:46:15;14.60;99.90
52209;DHT22;38507;53.132;6.394;2022-09-09T04:48:42;14.50;99.90
52209;DHT22;38507;53.132;6.394;2022-09-09T04:51:12;14.70;99.90
52209;DHT22;38507;53.132;6.394;2022-09-09T04:53:38;14.50;99.90
52209;DHT22;38507;53.132;6.394;2022-09-09T04:56:06;14.50;99.90
52209;DHT22;38507;53.132;6.394;2022-09-09T04:58:33;14.50;99.90
52209;DHT22;38507;53.132;6.394;2022-09-09T05:01:13;14.50;99.90
52209;DHT22;38507;53.132;6.394;2022-09-09T05:03:39;14.50;99.90
52209;DHT22;38507;53.132;6.394;2022-09-09T05:06:08;14.50;99.90
52209;DHT22;38507;53.132;6.394;2022-09-09T05:08:38;14.50;99.90
52209;DHT22;38507;53.132;6.394;2022-09-09T05:11:25;14.50;99.90
52209;DHT22;38507;53.132;6.394;2022-09-09T05:13:52;14.50;99.90
52209;DHT22;38507;53.132;6.394;2022-09-09T05:16:19;14.50;99.90
52209;DHT22;38507;53.132;6.394;2022-09-09T05:18:46;14.50;99.90
52209;DHT22;38507;53.132;6.394;2022-09-09T05:21:13;14.50;99.90
52209;DHT22;38507;53.132;6.394;2022-09-09T05:23:39;14.50;99.90
52209;DHT22;38507;53.132;6.394;2022-09-09T05:26:05;14.60;99.90
52209;DHT22;38507;53.132;6.394;2022-09-09T05:28:34;14.50;99.90
52209;DHT22;38507;53.132;6.394;2022-09-09T05:31:04;14.50;99.90
52209;DHT22;38507;53.132;6.394;2022-09-09T05:33:31;14.50;99.90
52209;DHT22;38507;53.132;6.394;2022-09-09T05:36:05;14.50;99.90
52209;DHT22;38507;53.132;6.394;2022-09-09T05:38:33;14.50;99.90
52209;DHT22;38507;53.132;6.394;2022-09-09T05:41:00;14.50;99.90
52209;DHT22;38507;53.132;6.394;2022-09-09T05:43:26;14.50;99.90
52209;DHT22;38507;53.132;6.394;2022-09-09T05:46:06;14.50;99.90
52209;DHT22;38507;53.132;6.394;2022-09-09T05:48:37;14.50;99.90
52209;DHT22;38507;53.132;6.394;2022-09-09T05:51:04;14.50;99.90
52209;DHT22;38507;53.132;6.394;2022-09-09T05:53:30;14.50;99.90
52209;DHT22;38507;53.132;6.394;2022-09-09T05:56:07;14.50;99.90
52209;DHT22;38507;53.132;6.394;2022-09-09T05:58:36;14.50;99.90
52209;DHT22;38507;53.132;6.394;2022-09-09T06:01:07;14.50;99.90
52209;DHT22;38507;53.132;6.394;2022-09-09T06:03:38;14.50;99.90
52209;DHT22;38507;53.132;6.394;2022-09-09T06:06:06;14.60;99.90
52209;DHT22;38507;53.132;6.394;2022-09-09T06:08:34;14.60;99.90
52209;DHT22;38507;53.132;6.394;2022-09-09T06:11:04;14.60;99.90
52209;DHT22;38507;53.132;6.394;2022-09-09T06:13:31;14.60;99.90
52209;DHT22;38507;53.132;6.394;2022-09-09T06:15:57;14.60;99.90
52209;DHT22;38507;53.132;6.394;2022-09-09T06:18:24;14.60;99.90
52209;DHT22;38507;53.132;6.394;2022-09-09T06:23:20;14.60;99.90
52209;DHT22;38507;53.132;6.394;2022-09-09T06:25:46;14.70;99.90
52209;DHT22;38507;53.132;6.394;2022-09-09T06:28:12;14.70;99.90
52209;DHT22;38507;53.132;6.394;2022-09-09T06:30:39;14.80;99.90
52209;DHT22;38507;53.132;6.394;2022-09-09T06:33:05;14.80;99.90
52209;DHT22;38507;53.132;6.394;2022-09-09T06:35:31;14.80;99.90
52209;DHT22;38507;53.132;6.394;2022-09-09T06:37:56;14.90;99.90
52209;DHT22;38507;53.132;6.394;2022-09-09T06:40:24;14.90;99.90
52209;DHT22;38507;53.132;6.394;2022-09-09T06:42:50;14.90;99.90
52209;DHT22;38507;53.132;6.394;2022-09-09T06:45:16;14.90;99.90
52209;DHT22;38507;53.132;6.394;2022-09-09T06:47:42;14.90;99.90
52209;DHT22;38507;53.132;6.394;2022-09-09T06:50:08;15.00;99.90
52209;DHT22;38507;53.132;6.394;2022-09-09T06:52:36;14.90;99.90
52209;DHT22;38507;53.132;6.394;2022-09-09T06:55:03;14.90;99.90
52209;DHT22;38507;53.132;6.394;2022-09-09T06:57:29;14.90;99.90
52209;DHT22;38507;53.132;6.394;2022-09-09T06:59:54;15.00;99.90
52209;DHT22;38507;53.132;6.394;2022-09-09T07:02:20;15.00;99.90
52209;DHT22;38507;53.132;6.394;2022-09-09T07:04:46;15.10;99.90
52209;DHT22;38507;53.132;6.394;2022-09-09T07:07:12;15.00;99.90
52209;DHT22;38507;53.132;6.394;2022-09-09T07:09:39;15.00;99.90
52209;DHT22;38507;53.132;6.394;2022-09-09T07:12:06;15.10;99.90
52209;DHT22;38507;53.132;6.394;2022-09-09T07:14:32;15.10;99.90
52209;DHT22;38507;53.132;6.394;2022-09-09T07:16:59;15.10;99.90
52209;DHT22;38507;53.132;6.394;2022-09-09T07:19:25;15.20;99.90
52209;DHT22;38507;53.132;6.394;2022-09-09T07:21:51;15.20;99.90
52209;DHT22;38507;53.132;6.394;2022-09-09T07:24:17;15.20;99.90
52209;DHT22;38507;53.132;6.394;2022-09-09T07:26:43;15.20;99.90
52209;DHT22;38507;53.132;6.394;2022-09-09T07:29:09;15.40;99.90
52209;DHT22;38507;53.132;6.394;2022-09-09T07:31:37;15.30;99.90
52209;DHT22;38507;53.132;6.394;2022-09-09T07:34:04;15.40;99.90
52209;DHT22;38507;53.132;6.394;2022-09-09T07:36:33;15.40;99.90
52209;DHT22;38507;53.132;6.394;2022-09-09T07:39:01;15.50;99.90
52209;DHT22;38507;53.132;6.394;2022-09-09T07:41:50;15.50;99.90
52209;DHT22;38507;53.132;6.394;2022-09-09T07:44:20;15.60;99.90
52209;DHT22;38507;53.132;6.394;2022-09-09T07:46:50;15.60;99.90
52209;DHT22;38507;53.132;6.394;2022-09-09T07:49:19;15.60;99.90
52209;DHT22;38507;53.132;6.394;2022-09-09T07:51:46;15.70;99.90
52209;DHT22;38507;53.132;6.394;2022-09-09T07:54:15;15.80;99.90
52209;DHT22;38507;53.132;6.394;2022-09-09T07:56:41;15.80;99.90
52209;DHT22;38507;53.132;6.394;2022-09-09T07:59:08;15.80;99.90
52209;DHT22;38507;53.132;6.394;2022-09-09T08:01:40;15.90;99.90
52209;DHT22;38507;53.132;6.394;2022-09-09T08:04:09;15.90;99.90
52209;DHT22;38507;53.132;6.394;2022-09-09T08:06:39;16.00;99.90
52209;DHT22;38507;53.132;6.394;2022-09-09T08:09:07;16.10;99.90
52209;DHT22;38507;53.132;6.394;2022-09-09T08:11:33;16.20;99.90
52209;DHT22;38507;53.132;6.394;2022-09-09T08:14:01;16.20;99.90
52209;DHT22;38507;53.132;6.394;2022-09-09T08:16:39;16.30;99.90
52209;DHT22;38507;53.132;6.394;2022-09-09T08:19:05;16.30;99.90
52209;DHT22;38507;53.132;6.394;2022-09-09T08:21:33;16.40;99.90
52209;DHT22;38507;53.132;6.394;2022-09-09T08:24:01;16.40;99.90
52209;DHT22;38507;53.132;6.394;2022-09-09T08:26:30;16.50;99.90
52209;DHT22;38507;53.132;6.394;2022-09-09T08:28:57;16.60;99.90
52209;DHT22;38507;53.132;6.394;2022-09-09T08:31:31;16.80;99.90
52209;DHT22;38507;53.132;6.394;2022-09-09T08:33:58;17.00;99.90
52209;DHT22;38507;53.132;6.394;2022-09-09T08:36:33;17.30;99.90
52209;DHT22;38507;53.132;6.394;2022-09-09T08:38:59;17.40;99.90
52209;DHT22;38507;53.132;6.394;2022-09-09T08:50:02;18.00;99.90
52209;DHT22;38507;53.132;6.394;2022-09-09T08:52:57;18.00;99.90
52209;DHT22;38507;53.132;6.394;2022-09-09T08:55:35;18.20;99.90
52209;DHT22;38507;53.132;6.394;2022-09-09T08:58:11;18.30;99.90
52209;DHT22;38507;53.132;6.394;2022-09-09T09:00:50;18.40;99.90
52209;DHT22;38507;53.132;6.394;2022-09-09T09:03:52;18.60;99.90
52209;DHT22;38507;53.132;6.394;2022-09-09T09:09:03;18.70;99.90
52209;DHT22;38507;53.132;6.394;2022-09-09T09:11:38;18.70;99.90
52209;DHT22;38507;53.132;6.394;2022-09-09T09:14:31;18.80;99.90
52209;DHT22;38507;53.132;6.394;2022-09-09T09:17:05;18.90;99.90
52209;DHT22;38507;53.132;6.394;2022-09-09T09:19:36;19.00;99.90
52209;DHT22;38507;53.132;6.394;2022-09-09T09:25:00;19.20;99.90
52209;DHT22;38507;53.132;6.394;2022-09-09T09:30:19;19.20;99.90
52209;DHT22;38507;53.132;6.394;2022-09-09T09:33:02;19.30;99.90
52209;DHT22;38507;53.132;6.394;2022-09-09T09:35:28;19.50;99.90
52209;DHT22;38507;53.132;6.394;2022-09-09T09:37:54;19.40;99.90
52209;DHT22;38507;53.132;6.394;2022-09-09T09:40:21;19.30;99.90
52209;DHT22;38507;53.132;6.394;2022-09-09T09:42:53;19.40;99.90
52209;DHT22;38507;53.132;6.394;2022-09-09T09:48:05;19.30;99.90
52209;DHT22;38507;53.132;6.394;2022-09-09T09:50:32;19.20;99.90
52209;DHT22;38507;53.132;6.394;2022-09-09T09:53:01;19.20;99.90
52209;DHT22;38507;53.132;6.394;2022-09-09T09:55:29;19.20;99.90
52209;DHT22;38507;53.132;6.394;2022-09-09T09:58:06;19.20;99.90
52209;DHT22;38507;53.132;6.394;2022-09-09T10:00:33;19.20;99.90
52209;DHT22;38507;53.132;6.394;2022-09-09T10:03:00;19.20;99.90
52209;DHT22;38507;53.132;6.394;2022-09-09T10:05:29;19.30;99.90
52209;DHT22;38507;53.132;6.394;2022-09-09T10:08:12;19.30;99.90
52209;DHT22;38507;53.132;6.394;2022-09-09T10:11:02;19.20;99.90
52209;DHT22;38507;53.132;6.394;2022-09-09T10:13:48;19.20;99.90
52209;DHT22;38507;53.132;6.394;2022-09-09T10:16:50;19.20;99.90
52209;DHT22;38507;53.132;6.394;2022-09-09T10:19:35;19.20;99.90
52209;DHT22;38507;53.132;6.394;2022-09-09T10:22:44;19.30;99.90
52209;DHT22;38507;53.132;6.394;2022-09-09T10:30:21;19.40;99.90
52209;DHT22;38507;53.132;6.394;2022-09-09T10:35:33;20.00;99.90
52209;DHT22;38507;53.132;6.394;2022-09-09T10:49:10;20.40;99.90
52209;DHT22;38507;53.132;6.394;2022-09-09T10:51:58;20.70;99.90
52209;DHT22;38507;53.132;6.394;2022-09-09T10:59:52;21.20;99.90
52209;DHT22;38507;53.132;6.394;2022-09-09T11:02:27;21.10;99.90
52209;DHT22;38507;53.132;6.394;2022-09-09T11:04:55;21.20;99.90
52209;DHT22;38507;53.132;6.394;2022-09-09T11:07:42;21.40;99.90
52209;DHT22;38507;53.132;6.394;2022-09-09T11:10:29;21.70;99.90
52209;DHT22;38507;53.132;6.394;2022-09-09T11:13:03;21.70;99.90
52209;DHT22;38507;53.132;6.394;2022-09-09T11:15:40;21.70;99.90
52209;DHT22;38507;53.132;6.394;2022-09-09T11:18:13;21.50;99.90
52209;DHT22;38507;53.132;6.394;2022-09-09T11:20:43;21.50;99.90
52209;DHT22;38507;53.132;6.394;2022-09-09T11:23:13;21.60;99.90
52209;DHT22;38507;53.132;6.394;2022-09-09T11:25:43;21.50;99.90
52209;DHT22;38507;53.132;6.394;2022-09-09T11:28:37;21.50;99.90
52209;DHT22;38507;53.132;6.394;2022-09-09T11:34:20;21.50;99.90
52209;DHT22;38507;53.132;6.394;2022-09-09T11:37:51;21.40;99.90
52209;DHT22;38507;53.132;6.394;2022-09-09T11:42:45;21.20;99.90
52209;DHT22;38507;53.132;6.394;2022-09-09T11:45:25;21.10;99.90
52209;DHT22;38507;53.132;6.394;2022-09-09T11:48:00;21.20;99.90
52209;DHT22;38507;53.132;6.394;2022-09-09T11:53:03;21.00;99.90
52209;DHT22;38507;53.132;6.394;2022-09-09T11:55:34;20.90;99.90
52209;DHT22;38507;53.132;6.394;2022-09-09T12:00:46;20.70;99.90
52209;DHT22;38507;53.132;6.394;2022-09-09T12:08:43;20.90;99.90
52209;DHT22;38507;53.132;6.394;2022-09-09T12:11:10;20.80;99.90
52209;DHT22;38507;53.132;6.394;2022-09-09T12:13:36;20.90;99.90
52209;DHT22;38507;53.132;6.394;2022-09-09T12:16:02;21.00;99.90
52209;DHT22;38507;53.132;6.394;2022-09-09T12:18:35;20.90;99.90
52209;DHT22;38507;53.132;6.394;2022-09-09T12:23:59;20.80;99.90
52209;DHT22;38507;53.132;6.394;2022-09-09T12:26:39;20.90;99.90
52209;DHT22;38507;53.132;6.394;2022-09-09T12:32:13;21.30;99.90
52209;DHT22;38507;53.132;6.394;2022-09-09T12:34:47;21.50;99.90
52209;DHT22;38507;53.132;6.394;2022-09-09T12:39:57;21.60;99.90
52209;DHT22;38507;53.132;6.394;2022-09-09T12:42:24;21.80;99.90
52209;DHT22;38507;53.132;6.394;2022-09-09T12:44:59;21.90;99.90
52209;DHT22;38507;53.132;6.394;2022-09-09T12:47:42;22.10;99.90
52209;DHT22;38507;53.132;6.394;2022-09-09T12:50:19;22.20;99.90
52209;DHT22;38507;53.132;6.394;2022-09-09T12:52:47;22.20;99.90
52209;DHT22;38507;53.132;6.394;2022-09-09T12:55:24;22.10;99.90
52209;DHT22;38507;53.132;6.394;2022-09-09T12:57:51;22.10;99.90
52209;DHT22;38507;53.132;6.394;2022-09-09T13:00:24;21.90;99.90
52209;DHT22;38507;53.132;6.394;2022-09-09T13:02:54;22.00;99.90
52209;DHT22;38507;53.132;6.394;2022-09-09T13:07:49;22.20;99.90
52209;DHT22;38507;53.132;6.394;2022-09-09T13:10:24;22.00;99.90
52209;DHT22;38507;53.132;6.394;2022-09-09T13:12:52;22.10;99.90
52209;DHT22;38507;53.132;6.394;2022-09-09T13:15:28;22.30;99.90
52209;DHT22;38507;53.132;6.394;2022-09-09T13:18:06;22.50;99.90
52209;DHT22;38507;53.132;6.394;2022-09-09T13:20:33;22.50;99.90
52209;DHT22;38507;53.132;6.394;2022-09-09T13:22:59;22.40;99.90
52209;DHT22;38507;53.132;6.394;2022-09-09T13:25:27;22.10;99.90
52209;DHT22;38507;53.132;6.394;2022-09-09T13:27:58;21.90;99.90
52209;DHT22;38507;53.132;6.394;2022-09-09T13:30:32;21.70;99.90
52209;DHT22;38507;53.132;6.394;2022-09-09T13:35:50;21.50;99.90
52209;DHT22;38507;53.132;6.394;2022-09-09T13:38:17;21.40;99.90
52209;DHT22;38507;53.132;6.394;2022-09-09T13:43:23;21.20;99.90
52209;DHT22;38507;53.132;6.394;2022-09-09T13:46:02;21.30;99.90
52209;DHT22;38507;53.132;6.394;2022-09-09T13:48:28;21.60;99.90
52209;DHT22;38507;53.132;6.394;2022-09-09T13:50:57;21.70;99.90
52209;DHT22;38507;53.132;6.394;2022-09-09T13:53:23;21.90;99.90
52209;DHT22;38507;53.132;6.394;2022-09-09T13:55:50;21.80;99.90
52209;DHT22;38507;53.132;6.394;2022-09-09T13:58:17;21.90;99.90
52209;DHT22;38507;53.132;6.394;2022-09-09T14:00:46;21.80;99.90
52209;DHT22;38507;53.132;6.394;2022-09-09T14:03:12;21.70;99.90
52209;DHT22;38507;53.132;6.394;2022-09-09T14:05:39;21.50;99.90
52209;DHT22;38507;53.132;6.394;2022-09-09T14:08:06;21.30;99.90
52209;DHT22;38507;53.132;6.394;2022-09-09T14:10:33;21.20;99.90
52209;DHT22;38507;53.132;6.394;2022-09-09T14:13:01;21.10;99.90
52209;DHT22;38507;53.132;6.394;2022-09-09T14:15:26;21.00;99.90
52209;DHT22;38507;53.132;6.394;2022-09-09T14:17:52;20.70;99.90
52209;DHT22;38507;53.132;6.394;2022-09-09T14:20:18;20.50;99.90
52209;DHT22;38507;53.132;6.394;2022-09-09T14:22:44;20.40;99.90
52209;DHT22;38507;53.132;6.394;2022-09-09T14:25:10;20.30;99.90
52209;DHT22;38507;53.132;6.394;2022-09-09T14:27:39;20.00;99.90
52209;DHT22;38507;53.132;6.394;2022-09-09T14:30:05;19.80;99.90
52209;DHT22;38507;53.132;6.394;2022-09-09T14:32:31;19.60;99.90
52209;DHT22;38507;53.132;6.394;2022-09-09T14:34:58;19.50;99.90
52209;DHT22;38507;53.132;6.394;2022-09-09T14:37:24;19.50;99.90
52209;DHT22;38507;53.132;6.394;2022-09-09T14:39:49;19.50;99.90
52209;DHT22;38507;53.132;6.394;2022-09-09T14:42:16;19.50;99.90
52209;DHT22;38507;53.132;6.394;2022-09-09T14:44:42;19.60;99.90
52209;DHT22;38507;53.132;6.394;2022-09-09T14:47:08;20.00;99.90
52209;DHT22;38507;53.132;6.394;2022-09-09T14:49:35;20.40;99.90
52209;DHT22;38507;53.132;6.394;2022-09-09T14:52:01;20.70;99.90
52209;DHT22;38507;53.132;6.394;2022-09-09T14:54:27;21.10;99.90
52209;DHT22;38507;53.132;6.394;2022-09-09T14:56:53;21.10;99.90
52209;DHT22;38507;53.132;6.394;2022-09-09T14:59:19;21.30;99.90
52209;DHT22;38507;53.132;6.394;2022-09-09T15:01:45;21.40;99.90
52209;DHT22;38507;53.132;6.394;2022-09-09T15:04:12;21.20;99.90
52209;DHT22;38507;53.132;6.394;2022-09-09T15:06:39;21.20;99.90
52209;DHT22;38507;53.132;6.394;2022-09-09T15:09:06;21.20;99.90
52209;DHT22;38507;53.132;6.394;2022-09-09T15:11:34;21.20;99.90
52209;DHT22;38507;53.132;6.394;2022-09-09T15:14:07;21.20;99.90
52209;DHT22;38507;53.132;6.394;2022-09-09T15:16:33;21.10;99.90
52209;DHT22;38507;53.132;6.394;2022-09-09T15:19:01;21.10;99.90
52209;DHT22;38507;53.132;6.394;2022-09-09T15:21:32;21.20;99.90
52209;DHT22;38507;53.132;6.394;2022-09-09T15:23:59;21.20;99.90
52209;DHT22;38507;53.132;6.394;2022-09-09T15:26:25;21.10;99.90
52209;DHT22;38507;53.132;6.394;2022-09-09T15:28:51;21.00;99.90
52209;DHT22;38507;53.132;6.394;2022-09-09T15:33:52;20.80;99.90
52209;DHT22;38507;53.132;6.394;2022-09-09T15:36:24;20.70;99.90
52209;DHT22;38507;53.132;6.394;2022-09-09T15:38:50;20.50;99.90
52209;DHT22;38507;53.132;6.394;2022-09-09T15:41:18;20.40;99.90
52209;DHT22;38507;53.132;6.394;2022-09-09T15:43:49;20.30;99.90
52209;DHT22;38507;53.132;6.394;2022-09-09T15:48:49;20.10;99.90
52209;DHT22;38507;53.132;6.394;2022-09-09T15:51:16;20.00;99.90
52209;DHT22;38507;53.132;6.394;2022-09-09T15:53:41;19.90;99.90
52209;DHT22;38507;53.132;6.394;2022-09-09T15:56:07;19.90;99.90
52209;DHT22;38507;53.132;6.394;2022-09-09T15:58:34;19.80;99.90
52209;DHT22;38507;53.132;6.394;2022-09-09T16:01:05;19.70;99.90
52209;DHT22;38507;53.132;6.394;2022-09-09T16:03:36;19.60;99.90
52209;DHT22;38507;53.132;6.394;2022-09-09T16:06:03;19.40;99.90
52209;DHT22;38507;53.132;6.394;2022-09-09T16:08:38;19.20;99.90
52209;DHT22;38507;53.132;6.394;2022-09-09T16:11:17;19.00;99.90
52209;DHT22;38507;53.132;6.394;2022-09-09T16:13:46;18.90;99.90
52209;DHT22;38507;53.132;6.394;2022-09-09T16:16:13;18.80;99.90
52209;DHT22;38507;53.132;6.394;2022-09-09T16:18:42;18.80;99.90
52209;DHT22;38507;53.132;6.394;2022-09-09T16:21:13;18.80;99.90
52209;DHT22;38507;53.132;6.394;2022-09-09T16:23:39;18.80;99.90
52209;DHT22;38507;53.132;6.394;2022-09-09T16:26:05;18.70;99.90
52209;DHT22;38507;53.132;6.394;2022-09-09T16:28:30;18.80;99.90
52209;DHT22;38507;53.132;6.394;2022-09-09T16:30:56;18.80;99.90
52209;DHT22;38507;53.132;6.394;2022-09-09T16:33:24;18.80;99.90
52209;DHT22;38507;53.132;6.394;2022-09-09T16:35:51;18.70;99.90
52209;DHT22;38507;53.132;6.394;2022-09-09T16:38:16;18.80;99.90
52209;DHT22;38507;53.132;6.394;2022-09-09T16:40:42;18.80;99.90
52209;DHT22;38507;53.132;6.394;2022-09-09T16:43:08;18.80;99.90
52209;DHT22;38507;53.132;6.394;2022-09-09T16:45:42;18.60;99.90
52209;DHT22;38507;53.132;6.394;2022-09-09T16:48:07;18.70;99.90
52209;DHT22;38507;53.132;6.394;2022-09-09T16:50:33;18.60;99.90
52209;DHT22;38507;53.132;6.394;2022-09-09T16:52:59;18.50;99.90
52209;DHT22;38507;53.132;6.394;2022-09-09T16:55:25;18.50;99.90
52209;DHT22;38507;53.132;6.394;2022-09-09T16:57:51;18.50;99.90
52209;DHT22;38507;53.132;6.394;2022-09-09T17:00:17;18.50;99.90
52209;DHT22;38507;53.132;6.394;2022-09-09T17:02:43;18.40;99.90
52209;DHT22;38507;53.132;6.394;2022-09-09T17:05:10;18.40;99.90
52209;DHT22;38507;53.132;6.394;2022-09-09T17:07:37;18.40;99.90
52209;DHT22;38507;53.132;6.394;2022-09-09T17:10:04;18.30;99.90
52209;DHT22;38507;53.132;6.394;2022-09-09T17:12:31;18.30;99.90
52209;DHT22;38507;53.132;6.394;2022-09-09T17:14:57;18.20;99.90
52209;DHT22;38507;53.132;6.394;2022-09-09T17:17:25;18.20;99.90
52209;DHT22;38507;53.132;6.394;2022-09-09T17:19:52;18.20;99.90
52209;DHT22;38507;53.132;6.394;2022-09-09T17:22:17;18.20;99.90
52209;DHT22;38507;53.132;6.394;2022-09-09T17:24:44;18.10;99.90
52209;DHT22;38507;53.132;6.394;2022-09-09T17:27:09;18.10;99.90
52209;DHT22;38507;53.132;6.394;2022-09-09T17:29:35;18.10;99.90
52209;DHT22;38507;53.132;6.394;2022-09-09T17:32:04;18.10;99.90
52209;DHT22;38507;53.132;6.394;2022-09-09T17:34:31;18.10;99.90
52209;DHT22;38507;53.132;6.394;2022-09-09T17:36:56;18.10;99.90
52209;DHT22;38507;53.132;6.394;2022-09-09T17:39:22;18.00;99.90
52209;DHT22;38507;53.132;6.394;2022-09-09T17:41:48;18.00;99.90
52209;DHT22;38507;53.132;6.394;2022-09-09T17:44:14;18.00;99.90
52209;DHT22;38507;53.132;6.394;2022-09-09T17:46:42;18.00;99.90
52209;DHT22;38507;53.132;6.394;2022-09-09T17:49:10;18.00;99.90
52209;DHT22;38507;53.132;6.394;2022-09-09T17:51:38;18.00;99.90
52209;DHT22;38507;53.132;6.394;2022-09-09T17:54:06;18.00;99.90
52209;DHT22;38507;53.132;6.394;2022-09-09T17:56:37;17.90;99.90
52209;DHT22;38507;53.132;6.394;2022-09-09T17:59:05;17.90;99.90